Time;durP1;ratioP1;P1;durP2;ratioP2;P2;SDS_P1;SDS_P2;PMS_P1;PMS_P2;Temp;Humidity;BMP_temperature;BMP_pressure;BME280_temperature;BME280_humidity;BME280_pressure;Samples;Min_cycle;Max_cycle;Signal;HPM_P1;HPM_P2
2023/10/22 00:01:20;;;;;;;13.50;12.70;;;;;;;-141.22;100.00;65034.22;5041161;28;20943;-40
2023/10/22 00:03:49;;;;;;;13.17;12.37;;;;;;;-141.22;100.00;65034.22;5041203;28;20982;-39
2023/10/22 00:06:17;;;;;;;12.20;11.60;;;;;;;-141.22;100.00;65034.22;5041100;28;20590;-39
2023/10/22 00:08:44;;;;;;;12.10;11.60;;;;;;;-141.22;100.00;65034.22;5040700;28;20519;-39
2023/10/22 00:11:14;;;;;;;12.97;11.93;;;;;;;-141.22;100.00;65034.22;5041409;28;20499;-40
2023/10/22 00:13:42;;;;;;;13.23;12.43;;;;;;;-141.22;100.00;65034.22;5033554;28;20484;-40
2023/10/22 00:16:09;;;;;;;12.60;11.90;;;;;;;-141.22;100.00;65034.22;5041262;28;20436;-39
2023/10/22 00:18:37;;;;;;;12.57;11.60;;;;;;;-141.22;100.00;65034.22;5041092;28;20671;-39
2023/10/22 00:21:08;;;;;;;13.13;12.03;;;;;;;-141.22;100.00;65034.22;5041727;28;20432;-42
2023/10/22 00:23:36;;;;;;;12.57;11.90;;;;;;;-141.22;100.00;65034.22;5040548;28;20510;-39
2023/10/22 00:26:05;;;;;;;11.93;11.10;;;;;;;-141.22;100.00;65034.22;5041577;28;20428;-40
2023/10/22 00:28:35;;;;;;;12.83;11.93;;;;;;;-141.22;100.00;65034.22;5041493;28;20459;-39
2023/10/22 00:31:03;;;;;;;13.20;12.07;;;;;;;-141.22;100.00;65034.22;5041556;28;20436;-41
2023/10/22 00:33:31;;;;;;;13.30;12.40;;;;;;;-141.22;100.00;65034.22;5040435;28;20460;-41
2023/10/22 00:35:59;;;;;;;12.37;11.70;;;;;;;-141.22;100.00;65034.22;5040574;28;20436;-39
2023/10/22 00:38:27;;;;;;;11.63;11.00;;;;;;;-141.22;100.00;65034.22;5040010;28;20507;-40
2023/10/22 00:40:55;;;;;;;12.37;11.57;;;;;;;-141.22;100.00;65034.22;5040523;28;20432;-41
2023/10/22 00:43:22;;;;;;;12.77;11.90;;;;;;;-141.22;100.00;65034.22;5040969;28;20511;-40
2023/10/22 00:45:53;;;;;;;12.10;11.40;;;;;;;-141.22;100.00;65034.22;5040651;28;20490;-39
2023/10/22 00:48:22;;;;;;;11.20;10.40;;;;;;;-141.22;100.00;65034.22;5040373;28;20460;-40
2023/10/22 00:50:50;;;;;;;11.60;10.60;;;;;;;-141.22;100.00;65034.22;5040746;28;20491;-39
2023/10/22 00:53:18;;;;;;;11.13;10.63;;;;;;;-141.22;100.00;65034.22;5040253;28;20460;-41
2023/10/22 00:55:47;;;;;;;12.70;11.70;;;;;;;-141.22;100.00;65034.22;5040872;28;20428;-40
2023/10/22 00:58:16;;;;;;;12.33;11.73;;;;;;;-141.22;100.00;65034.22;5041134;28;20472;-40
2023/10/22 01:00:45;;;;;;;11.40;10.73;;;;;;;-141.22;100.00;65034.22;5033271;28;20500;-42
2023/10/22 01:03:16;;;;;;;12.13;11.10;;;;;;;-141.22;100.00;65034.22;5041181;28;20460;-40
2023/10/22 01:05:44;;;;;;;11.70;11.10;;;;;;;-141.22;100.00;65034.22;5040944;28;20536;-39
2023/10/22 01:08:12;;;;;;;11.77;11.10;;;;;;;-141.22;100.00;65034.22;5040998;28;20459;-39
2023/10/22 01:10:40;;;;;;;11.93;11.33;;;;;;;-141.22;100.00;65034.22;5041088;28;20535;-41
2023/10/22 01:13:07;;;;;;;11.70;11.00;;;;;;;-141.22;100.00;65034.22;5043391;28;20527;-39
2023/10/22 01:15:36;;;;;;;11.13;10.30;;;;;;;-141.22;100.00;65034.22;5043741;28;20436;-39
2023/10/22 01:18:04;;;;;;;12.00;11.40;;;;;;;-141.22;100.00;65034.22;5044144;28;20593;-39
2023/10/22 01:20:34;;;;;;;11.30;10.60;;;;;;;-141.22;100.00;65034.22;5044224;28;20455;-40
2023/10/22 01:23:01;;;;;;;11.50;10.67;;;;;;;-141.22;100.00;65034.22;5044551;28;20460;-39
2023/10/22 01:25:30;;;;;;;12.17;11.43;;;;;;;-141.22;100.00;65034.22;5044280;28;20452;-40
2023/10/22 01:27:59;;;;;;;12.10;11.43;;;;;;;-141.22;100.00;65034.22;5044558;28;20447;-39
2023/10/22 01:30:27;;;;;;;11.57;10.70;;;;;;;-141.22;100.00;65034.22;5044201;28;20444;-39
2023/10/22 01:32:54;;;;;;;11.33;10.50;;;;;;;-141.22;100.00;65034.22;5044279;28;20460;-39
2023/10/22 01:35:22;;;;;;;11.90;11.10;;;;;;;-141.22;100.00;65034.22;5043830;28;20486;-42
2023/10/22 01:37:50;;;;;;;10.80;10.10;;;;;;;-141.22;100.00;65034.22;5044483;28;20559;-41
2023/10/22 01:40:18;;;;;;;10.87;10.33;;;;;;;-141.22;100.00;65034.22;5044215;28;20443;-41
2023/10/22 01:42:47;;;;;;;11.10;10.40;;;;;;;-141.22;100.00;65034.22;5035948;28;20456;-41
2023/10/22 01:45:15;;;;;;;11.37;10.30;;;;;;;-141.22;100.00;65034.22;5043390;28;20463;-40
2023/10/22 01:47:43;;;;;;;10.47;9.60;;;;;;;-141.22;100.00;65034.22;5043676;28;20455;-41
2023/10/22 01:50:11;;;;;;;10.70;9.70;;;;;;;-141.22;100.00;65034.22;5043992;28;20432;-39
2023/10/22 01:52:39;;;;;;;11.17;10.23;;;;;;;-141.22;100.00;65034.22;5043543;28;20706;-39
2023/10/22 01:55:07;;;;;;;10.70;9.97;;;;;;;-141.22;100.00;65034.22;5043168;28;20955;-39
2023/10/22 01:57:35;;;;;;;11.83;10.80;;;;;;;-141.22;100.00;65034.22;5044178;28;20471;-41
2023/10/22 02:00:06;;;;;;;10.80;9.90;;;;;;;-141.22;100.00;65034.22;5043738;28;20436;-39
2023/10/22 02:02:35;;;;;;;9.93;9.27;;;;;;;-141.22;100.00;65034.22;5043312;28;20513;-39
2023/10/22 02:05:03;;;;;;;10.37;9.60;;;;;;;-141.22;100.00;65034.22;5042764;28;20436;-40
2023/10/22 02:07:31;;;;;;;10.27;9.67;;;;;;;-141.22;100.00;65034.22;5043010;28;20452;-39
2023/10/22 02:09:59;;;;;;;10.30;9.90;;;;;;;-141.22;100.00;65034.22;5043435;28;20432;-40
2023/10/22 02:12:29;;;;;;;10.33;9.83;;;;;;;-141.22;100.00;65034.22;5042669;28;20452;-39
2023/10/22 02:14:57;;;;;;;10.43;9.73;;;;;;;-141.22;100.00;65034.22;5043020;28;20424;-40
2023/10/22 02:17:26;;;;;;;10.70;10.20;;;;;;;-141.22;100.00;65034.22;5043132;28;20483;-38
2023/10/22 02:19:54;;;;;;;10.30;9.90;;;;;;;-141.22;100.00;65034.22;5043615;28;20471;-40
2023/10/22 02:22:21;;;;;;;11.17;10.57;;;;;;;-141.22;100.00;65034.22;5042660;28;20463;-41
2023/10/22 02:24:49;;;;;;;11.30;10.87;;;;;;;-141.22;100.00;65034.22;5042293;28;20440;-39
2023/10/22 02:27:17;;;;;;;11.43;10.83;;;;;;;-141.22;100.00;65034.22;5043312;28;20511;-39
2023/10/22 02:29:45;;;;;;;11.00;10.40;;;;;;;-141.22;100.00;65034.22;5042386;28;20428;-41
2023/10/22 02:32:12;;;;;;;10.60;10.00;;;;;;;-141.22;100.00;65034.22;5042194;28;20653;-40
2023/10/22 02:34:41;;;;;;;9.27;8.83;;;;;;;-141.22;100.00;65034.22;5042712;28;20535;-40
2023/10/22 02:37:10;;;;;;;10.20;9.60;;;;;;;-141.22;100.00;65034.22;5043244;28;20932;-41
2023/10/22 02:39:37;;;;;;;9.80;9.30;;;;;;;-141.22;100.00;65034.22;5043202;28;20851;-39
2023/10/22 02:42:05;;;;;;;9.37;8.87;;;;;;;-141.22;100.00;65034.22;5042681;28;20460;-42
2023/10/22 02:44:33;;;;;;;9.93;9.33;;;;;;;-141.22;100.00;65034.22;5043177;28;20447;-39
2023/10/22 02:47:02;;;;;;;9.90;9.20;;;;;;;-141.22;100.00;65034.22;5042416;28;20448;-39
2023/10/22 02:49:30;;;;;;;9.60;8.90;;;;;;;-141.22;100.00;65034.22;5042953;28;20421;-39
2023/10/22 02:51:59;;;;;;;9.30;8.70;;;;;;;-141.22;100.00;65034.22;5042935;28;20436;-39
2023/10/22 02:54:27;;;;;;;9.03;8.60;;;;;;;-141.22;100.00;65034.22;5042773;28;20436;-40
2023/10/22 02:56:54;;;;;;;10.50;9.80;;;;;;;-141.22;100.00;65034.22;5042487;28;20451;-40
2023/10/22 02:59:22;;;;;;;9.00;8.60;;;;;;;-141.22;100.00;65034.22;5042780;28;21014;-39
2023/10/22 03:01:50;;;;;;;11.00;10.13;;;;;;;-141.22;100.00;65034.22;5042687;28;20432;-39
2023/10/22 03:04:18;;;;;;;10.60;9.80;;;;;;;-141.22;100.00;65034.22;5041895;28;20801;-39
2023/10/22 03:06:46;;;;;;;10.93;10.30;;;;;;;-141.22;100.00;65034.22;5042751;28;20439;-39
2023/10/22 03:09:15;;;;;;;11.60;11.00;;;;;;;-141.22;100.00;65034.22;5043209;28;20498;-40
2023/10/22 03:11:43;;;;;;;10.87;10.27;;;;;;;-141.22;100.00;65034.22;5042495;28;20447;-39
2023/10/22 03:14:11;;;;;;;11.00;10.30;;;;;;;-141.22;100.00;65034.22;5042467;28;20455;-39
2023/10/22 03:16:38;;;;;;;10.43;9.80;;;;;;;-141.22;100.00;65034.22;5042659;28;20551;-38
2023/10/22 03:19:06;;;;;;;10.27;9.67;;;;;;;-141.22;100.00;65034.22;5042869;28;20487;-39
2023/10/22 03:21:35;;;;;;;10.13;9.43;;;;;;;-141.22;100.00;65034.22;5042630;28;20459;-39
2023/10/22 03:24:04;;;;;;;9.77;9.17;;;;;;;-141.22;100.00;65034.22;5041983;28;20466;-39
2023/10/22 03:26:33;;;;;;;10.50;9.90;;;;;;;-141.22;100.00;65034.22;5042396;28;20979;-41
2023/10/22 03:29:01;;;;;;;10.30;9.80;;;;;;;-141.22;100.00;65034.22;5042770;28;20522;-39
2023/10/22 03:31:28;;;;;;;10.37;9.87;;;;;;;-141.22;100.00;65034.22;5041596;28;20471;-39
2023/10/22 03:33:56;;;;;;;10.57;9.77;;;;;;;-141.22;100.00;65034.22;5041620;28;20519;-39
2023/10/22 03:36:24;;;;;;;10.37;9.87;;;;;;;-141.22;100.00;65034.22;5041549;28;20494;-39
2023/10/22 03:38:52;;;;;;;10.73;10.20;;;;;;;-141.22;100.00;65034.22;5041868;28;20508;-39
2023/10/22 03:41:19;;;;;;;10.40;10.00;;;;;;;-141.22;100.00;65034.22;5042247;28;20444;-39
2023/10/22 03:43:49;;;;;;;10.70;9.97;;;;;;;-141.22;100.00;65034.22;5041370;28;20484;-39
2023/10/22 03:46:16;;;;;;;10.93;10.23;;;;;;;-141.22;100.00;65034.22;5041676;28;20455;-39
2023/10/22 03:48:44;;;;;;;10.57;10.07;;;;;;;-141.22;100.00;65034.22;5042079;28;20456;-38
2023/10/22 03:51:12;;;;;;;10.47;10.00;;;;;;;-141.22;100.00;65034.22;5042132;28;20451;-40
2023/10/22 03:53:40;;;;;;;11.10;10.50;;;;;;;-141.22;100.00;65034.22;5041424;28;21014;-39
2023/10/22 03:56:08;;;;;;;11.70;10.90;;;;;;;-141.22;100.00;65034.22;5041548;28;20425;-40
2023/10/22 03:58:36;;;;;;;11.37;10.97;;;;;;;-141.22;100.00;65034.22;5041416;28;20452;-39
2023/10/22 04:01:05;;;;;;;11.77;11.20;;;;;;;-141.22;100.00;65034.22;5041950;28;20486;-40
2023/10/22 04:03:33;;;;;;;10.73;10.23;;;;;;;-141.22;100.00;65034.22;5041742;28;20506;-39
2023/10/22 04:06:01;;;;;;;11.63;10.70;;;;;;;-141.22;100.00;65034.22;5041469;28;20486;-39
2023/10/22 04:08:29;;;;;;;9.70;9.20;;;;;;;-141.22;100.00;65034.22;5042090;28;20816;-40
2023/10/22 04:10:57;;;;;;;10.27;9.70;;;;;;;-141.22;100.00;65034.22;5041726;28;20494;-41
2023/10/22 04:13:24;;;;;;;10.43;10.00;;;;;;;-141.22;100.00;65034.22;5040225;28;20484;-40
2023/10/22 04:15:52;;;;;;;9.97;9.23;;;;;;;-141.22;100.00;65034.22;5033100;28;20464;-39
2023/10/22 04:18:21;;;;;;;11.23;10.47;;;;;;;-141.22;100.00;65034.22;5040781;28;20478;-42
2023/10/22 04:20:50;;;;;;;11.33;10.53;;;;;;;-141.22;100.00;65034.22;5041218;28;21068;-42
2023/10/22 04:23:18;;;;;;;9.63;9.13;;;;;;;-141.22;100.00;65034.22;5040704;28;20480;-39
2023/10/22 04:25:46;;;;;;;10.73;10.07;;;;;;;-141.22;100.00;65034.22;5040891;28;20444;-41
2023/10/22 04:28:15;;;;;;;9.93;9.47;;;;;;;-141.22;100.00;65034.22;5041329;28;20452;-39
2023/10/22 04:30:44;;;;;;;10.23;9.73;;;;;;;-141.22;100.00;65034.22;5040752;28;20843;-39
2023/10/22 04:33:12;;;;;;;10.60;9.73;;;;;;;-141.22;100.00;65034.22;5039862;28;20560;-41
2023/10/22 04:35:42;;;;;;;10.80;10.00;;;;;;;-141.22;100.00;65034.22;5040526;28;20435;-40
2023/10/22 04:38:10;;;;;;;10.23;9.63;;;;;;;-141.22;100.00;65034.22;5040832;28;20460;-40
2023/10/22 04:40:37;;;;;;;12.20;9.80;;;;;;;-141.22;100.00;65034.22;5040293;28;20519;-40
2023/10/22 04:43:05;;;;;;;10.00;9.40;;;;;;;-141.22;100.00;65034.22;5040229;28;20547;-41
2023/10/22 04:45:33;;;;;;;11.30;10.50;;;;;;;-141.22;100.00;65034.22;5040180;28;20431;-39
2023/10/22 04:48:00;;;;;;;12.00;11.17;;;;;;;-141.22;100.00;65034.22;5043571;28;20805;-39
2023/10/22 04:50:29;;;;;;;10.33;9.93;;;;;;;-141.22;100.00;65034.22;5044898;28;20432;-39
2023/10/22 04:52:58;;;;;;;11.10;10.37;;;;;;;-141.22;100.00;65034.22;5044296;28;20452;-40
2023/10/22 04:55:26;;;;;;;10.60;9.70;;;;;;;-141.22;100.00;65034.22;5044631;28;20443;-39
2023/10/22 04:57:55;;;;;;;9.23;8.83;;;;;;;-141.22;100.00;65034.22;5044593;28;20551;-41
2023/10/22 05:00:23;;;;;;;10.20;9.40;;;;;;;-141.22;100.00;65034.22;5044788;28;20498;-40
2023/10/22 05:02:51;;;;;;;13.17;9.60;;;;;;;-141.22;100.00;65034.22;5044299;28;20471;-39
2023/10/22 05:05:20;;;;;;;9.77;9.37;;;;;;;-141.22;100.00;65034.22;5044103;28;20428;-40
2023/10/22 05:07:49;;;;;;;10.37;9.67;;;;;;;-141.22;100.00;65034.22;5044072;28;20883;-41
2023/10/22 05:10:18;;;;;;;11.13;10.40;;;;;;;-141.22;100.00;65034.22;5044093;28;20432;-42
2023/10/22 05:12:46;;;;;;;11.37;10.83;;;;;;;-141.22;100.00;65034.22;5043807;28;20452;-41
2023/10/22 05:15:15;;;;;;;11.07;10.57;;;;;;;-141.22;100.00;65034.22;5043174;28;20435;-40
2023/10/22 05:17:42;;;;;;;11.20;10.60;;;;;;;-141.22;100.00;65034.22;5043761;28;20496;-40
2023/10/22 05:20:11;;;;;;;10.97;10.40;;;;;;;-141.22;100.00;65034.22;5044159;28;20558;-41
2023/10/22 05:22:39;;;;;;;10.50;9.90;;;;;;;-141.22;100.00;65034.22;5043677;28;20980;-39
2023/10/22 05:25:08;;;;;;;9.83;9.33;;;;;;;-141.22;100.00;65034.22;5044648;28;20451;-41
2023/10/22 05:27:37;;;;;;;10.73;10.13;;;;;;;-141.22;100.00;65034.22;5043699;28;20451;-40
2023/10/22 05:30:06;;;;;;;10.20;9.70;;;;;;;-141.22;100.00;65034.22;5043730;28;20428;-40
2023/10/22 05:32:33;;;;;;;9.70;9.00;;;;;;;-141.22;100.00;65034.22;5043504;28;20496;-39
2023/10/22 05:35:03;;;;;;;10.60;9.80;;;;;;;-141.22;100.00;65034.22;5044262;28;20436;-39
2023/10/22 05:37:31;;;;;;;10.47;9.77;;;;;;;-141.22;100.00;65034.22;5043423;28;20524;-40
2023/10/22 05:39:59;;;;;;;10.37;9.67;;;;;;;-141.22;100.00;65034.22;5043591;28;20958;-39
2023/10/22 05:42:27;;;;;;;9.60;9.00;;;;;;;-141.22;100.00;65034.22;5043714;28;20479;-41
2023/10/22 05:44:56;;;;;;;8.90;8.57;;;;;;;-141.22;100.00;65034.22;5043326;28;20456;-39
2023/10/22 05:47:27;;;;;;;8.53;8.13;;;;;;;-141.22;100.00;65034.22;5044322;28;20536;-39
2023/10/22 05:49:54;;;;;;;8.60;8.00;;;;;;;-141.22;100.00;65034.22;5043863;28;20429;-40
2023/10/22 05:52:24;;;;;;;8.60;8.07;;;;;;;-141.22;100.00;65034.22;5043906;28;20460;-39
2023/10/22 05:54:52;;;;;;;9.43;8.83;;;;;;;-141.22;100.00;65034.22;5043749;28;20468;-39
2023/10/22 05:57:22;;;;;;;8.70;8.17;;;;;;;-141.22;100.00;65034.22;5043921;28;20460;-39
2023/10/22 05:59:50;;;;;;;8.80;8.30;;;;;;;-141.22;100.00;65034.22;5043927;28;20468;-40
2023/10/22 06:02:19;;;;;;;9.20;8.63;;;;;;;-141.22;100.00;65034.22;5044162;28;20467;-39
2023/10/22 06:04:47;;;;;;;9.77;8.60;;;;;;;-141.22;100.00;65034.22;5043509;28;20446;-39
2023/10/22 06:07:15;;;;;;;7.70;7.50;;;;;;;-141.22;100.00;65034.22;5043387;28;20515;-39
2023/10/22 06:09:43;;;;;;;8.17;7.53;;;;;;;-141.22;100.00;65034.22;5043458;28;20467;-41
2023/10/22 06:12:10;;;;;;;7.17;6.67;;;;;;;-141.22;100.00;65034.22;5043024;28;20436;-40
2023/10/22 06:14:38;;;;;;;7.33;6.93;;;;;;;-141.22;100.00;65034.22;5044221;28;20711;-40
2023/10/22 06:17:06;;;;;;;7.77;7.10;;;;;;;-141.22;100.00;65034.22;5043170;28;20471;-39
2023/10/22 06:19:35;;;;;;;8.23;7.57;;;;;;;-141.22;100.00;65034.22;5042651;28;20500;-40
2023/10/22 06:22:03;;;;;;;8.10;7.67;;;;;;;-141.22;100.00;65034.22;5041923;28;20472;-39
2023/10/22 06:24:31;;;;;;;8.73;8.03;;;;;;;-141.22;100.00;65034.22;5044000;28;20464;-39
2023/10/22 06:26:59;;;;;;;8.13;7.73;;;;;;;-141.22;100.00;65034.22;5035297;28;20441;-39
2023/10/22 06:29:27;;;;;;;8.47;7.70;;;;;;;-141.22;100.00;65034.22;5043257;28;20442;-41
2023/10/22 06:31:55;;;;;;;8.00;7.50;;;;;;;-141.22;100.00;65034.22;5042256;28;20433;-39
2023/10/22 06:34:22;;;;;;;9.43;8.53;;;;;;;-141.22;100.00;65034.22;5042882;28;20464;-39
2023/10/22 06:36:52;;;;;;;7.53;7.10;;;;;;;-141.22;100.00;65034.22;5045066;28;20464;-39
2023/10/22 06:39:20;;;;;;;7.63;7.33;;;;;;;-141.22;100.00;65034.22;5047699;28;20824;-40
2023/10/22 06:41:48;;;;;;;8.17;7.40;;;;;;;-141.22;100.00;65034.22;5040531;28;20468;-39
2023/10/22 06:44:16;;;;;;;8.10;7.40;;;;;;;-141.22;100.00;65034.22;5041680;28;20460;-42
2023/10/22 06:46:44;;;;;;;7.63;7.20;;;;;;;-141.22;100.00;65034.22;5041555;28;20495;-40
2023/10/22 06:49:12;;;;;;;8.47;7.27;;;;;;;-141.22;100.00;65034.22;5042439;28;20479;-40
2023/10/22 06:51:39;;;;;;;6.97;6.67;;;;;;;-141.22;100.00;65034.22;5040684;28;20475;-39
2023/10/22 06:54:09;;;;;;;7.90;7.40;;;;;;;-141.22;100.00;65034.22;5040001;28;20460;-39
2023/10/22 06:56:37;;;;;;;7.63;7.00;;;;;;;-141.22;100.00;65034.22;5032705;28;20467;-41
2023/10/22 06:59:05;;;;;;;7.57;7.03;;;;;;;-141.22;100.00;65034.22;5031608;28;20963;-39
2023/10/22 07:01:32;;;;;;;6.20;5.90;;;;;;;-141.22;100.00;65034.22;5031629;28;20559;-40
2023/10/22 07:04:00;;;;;;;8.20;6.10;;;;;;;-141.22;100.00;65034.22;5030030;28;20870;-47
2023/10/22 07:06:31;;;;;;;7.10;6.60;;;;;;;-141.22;100.00;65034.22;5027142;28;20531;-40
2023/10/22 07:08:59;;;;;;;8.80;8.10;;;;;;;-141.22;100.00;65034.22;5030613;28;20475;-40
2023/10/22 07:11:33;;;;;;;6.90;6.20;;;;;;;-141.22;100.00;65034.22;5031264;28;20439;-42
2023/10/22 07:14:01;;;;;;;6.17;5.90;;;;;;;-141.22;100.00;65034.22;5022052;28;21009;-44
2023/10/22 07:16:28;;;;;;;7.27;6.67;;;;;;;-141.22;100.00;65034.22;5030740;28;20486;-45
2023/10/22 07:18:56;;;;;;;6.93;6.27;;;;;;;-141.22;100.00;65034.22;5031203;28;20975;-41
2023/10/22 07:21:24;;;;;;;6.70;6.10;;;;;;;-141.22;100.00;65034.22;5031193;28;20476;-41
2023/10/22 07:23:52;;;;;;;7.70;7.10;;;;;;;-141.22;100.00;65034.22;5029774;28;20456;-40
2023/10/22 07:26:22;;;;;;;7.50;6.90;;;;;;;-141.22;100.00;65034.22;5030485;28;20940;-39
2023/10/22 07:28:52;;;;;;;6.90;6.30;;;;;;;-141.22;100.00;65034.22;5029021;28;20456;-38
2023/10/22 07:31:19;;;;;;;6.77;6.47;;;;;;;-141.22;100.00;65034.22;5031206;28;20995;-38
2023/10/22 07:33:49;;;;;;;6.80;6.50;;;;;;;-141.22;100.00;65034.22;5027358;28;20460;-41
2023/10/22 07:36:17;;;;;;;6.67;6.27;;;;;;;-141.22;100.00;65034.22;5030409;28;20455;-43
2023/10/22 07:38:45;;;;;;;7.33;6.73;;;;;;;-141.22;100.00;65034.22;5030754;28;20543;-40
2023/10/22 07:41:14;;;;;;;7.00;6.70;;;;;;;-141.22;100.00;65034.22;5030713;28;20517;-43
2023/10/22 07:43:42;;;;;;;9.63;6.60;;;;;;;-141.22;100.00;65034.22;5029531;28;20533;-41
2023/10/22 07:46:11;;;;;;;7.80;7.10;;;;;;;-141.22;100.00;65034.22;5030603;28;20471;-43
2023/10/22 07:48:39;;;;;;;7.07;6.40;;;;;;;-141.22;100.00;65034.22;5037775;23;20528;-44
2023/10/22 07:51:11;;;;;;;8.63;6.50;;;;;;;-141.22;100.00;65034.22;5031508;28;20432;-42
2023/10/22 07:53:39;;;;;;;5.80;5.30;;;;;;;-141.22;100.00;65034.22;5021698;28;20464;-39
2023/10/22 07:56:07;;;;;;;6.47;5.63;;;;;;;-141.22;100.00;65034.22;5021350;28;20433;-41
2023/10/22 07:58:36;;;;;;;5.90;5.60;;;;;;;-141.22;100.00;65034.22;5027122;28;20502;-40
2023/10/22 08:01:04;;;;;;;6.60;6.00;;;;;;;-141.22;100.00;65034.22;5030909;28;20607;-45
2023/10/22 08:03:34;;;;;;;5.77;5.30;;;;;;;-141.22;100.00;65034.22;5029824;28;20479;-45
2023/10/22 08:06:03;;;;;;;5.60;5.20;;;;;;;-141.22;100.00;65034.22;5030243;28;20444;-42
2023/10/22 08:08:31;;;;;;;5.13;4.90;;;;;;;-141.22;100.00;65034.22;5030519;28;20456;-40
2023/10/22 08:10:59;;;;;;;6.03;5.53;;;;;;;-141.22;100.00;65034.22;5030944;28;20523;-43
2023/10/22 08:13:27;;;;;;;6.30;5.90;;;;;;;-141.22;100.00;65034.22;5029562;28;20574;-40
2023/10/22 08:15:56;;;;;;;6.60;5.50;;;;;;;-141.22;100.00;65034.22;5030177;28;20494;-40
2023/10/22 08:18:24;;;;;;;5.93;5.43;;;;;;;-141.22;100.00;65034.22;5030820;28;20451;-42
2023/10/22 08:20:53;;;;;;;7.87;6.37;;;;;;;-141.22;100.00;65034.22;5030494;28;20490;-41
2023/10/22 08:23:21;;;;;;;6.63;5.90;;;;;;;-141.22;100.00;65034.22;5033681;28;20467;-41
2023/10/22 08:25:52;;;;;;;5.93;5.33;;;;;;;-141.22;100.00;65034.22;5033898;28;20467;-41
2023/10/22 08:28:20;;;;;;;6.00;5.60;;;;;;;-141.22;100.00;65034.22;5034740;28;20546;-41
2023/10/22 08:30:48;;;;;;;4.80;4.60;;;;;;;-141.22;100.00;65034.22;5034456;28;20440;-41
2023/10/22 08:33:16;;;;;;;5.97;5.53;;;;;;;-141.22;100.00;65034.22;5033440;28;20475;-41
2023/10/22 08:35:44;;;;;;;5.47;5.17;;;;;;;-141.22;100.00;65034.22;5033282;28;20436;-41
2023/10/22 08:38:14;;;;;;;7.20;5.67;;;;;;;-141.22;100.00;65034.22;5034607;28;20811;-39
2023/10/22 08:40:43;;;;;;;4.60;4.30;;;;;;;-141.22;100.00;65034.22;5034598;28;20463;-39
2023/10/22 08:43:16;;;;;;;8.83;4.60;;;;;;;-141.22;100.00;65034.22;5033341;28;20486;-42
2023/10/22 08:45:46;;;;;;;4.80;4.50;;;;;;;-141.22;100.00;65034.22;5033843;28;20440;-44
2023/10/22 08:48:15;;;;;;;5.63;5.23;;;;;;;-141.22;100.00;65034.22;5033776;28;21307;-40
2023/10/22 08:50:46;;;;;;;7.30;4.90;;;;;;;-141.22;100.00;65034.22;5034316;28;20931;-41
2023/10/22 08:53:16;;;;;;;8.27;5.17;;;;;;;-141.22;100.00;65034.22;5026573;28;20460;-43
2023/10/22 08:55:45;;;;;;;5.43;5.03;;;;;;;-141.22;100.00;65034.22;5033687;28;20443;-43
2023/10/22 08:58:15;;;;;;;5.93;5.30;;;;;;;-141.22;100.00;65034.22;5027288;28;20823;-43
2023/10/22 09:00:46;;;;;;;6.03;5.40;;;;;;;-141.22;100.00;65034.22;5034086;28;20440;-41
2023/10/22 09:03:14;;;;;;;5.73;5.33;;;;;;;-141.22;100.00;65034.22;5033592;28;20470;-43
2023/10/22 09:05:43;;;;;;;6.83;6.40;;;;;;;-141.22;100.00;65034.22;5033760;28;20436;-41
2023/10/22 09:08:11;;;;;;;7.83;7.20;;;;;;;-141.22;100.00;65034.22;5034358;28;20452;-43
2023/10/22 09:10:41;;;;;;;4.63;4.23;;;;;;;-141.22;100.00;65034.22;5034343;28;20452;-42
2023/10/22 09:13:16;;;;;;;5.60;5.10;;;;;;;-141.22;100.00;65034.22;5024472;28;20835;-40
2023/10/22 09:15:45;;;;;;;4.67;4.37;;;;;;;-141.22;100.00;65034.22;5033120;28;20519;-40
2023/10/22 09:18:15;;;;;;;5.20;4.80;;;;;;;-141.22;100.00;65034.22;5034328;28;20456;-43
2023/10/22 09:20:44;;;;;;;5.70;5.20;;;;;;;-141.22;100.00;65034.22;5034418;28;20440;-42
2023/10/22 09:23:14;;;;;;;6.50;6.30;;;;;;;-141.22;100.00;65034.22;5032514;28;20472;-41
2023/10/22 09:25:44;;;;;;;6.90;6.00;;;;;;;-141.22;100.00;65034.22;5032620;28;20455;-42
2023/10/22 09:28:13;;;;;;;6.10;5.77;;;;;;;-141.22;100.00;65034.22;5034138;28;20990;-42
2023/10/22 09:30:41;;;;;;;5.73;4.87;;;;;;;-141.22;100.00;65034.22;5033724;28;20464;-44
2023/10/22 09:33:10;;;;;;;5.27;5.07;;;;;;;-141.22;100.00;65034.22;5024641;28;20488;-42
2023/10/22 09:35:38;;;;;;;5.13;4.73;;;;;;;-141.22;100.00;65034.22;5032785;28;20519;-42
2023/10/22 09:38:06;;;;;;;6.03;5.60;;;;;;;-141.22;100.00;65034.22;5041628;28;20456;-43
2023/10/22 09:40:34;;;;;;;5.43;5.13;;;;;;;-141.22;100.00;65034.22;5034137;28;20436;-46
2023/10/22 09:43:04;;;;;;;6.63;5.07;;;;;;;-141.22;100.00;65034.22;5032667;28;20994;-42
2023/10/22 09:45:32;;;;;;;5.83;5.33;;;;;;;-141.22;100.00;65034.22;5033510;28;20807;-42
2023/10/22 09:48:06;;;;;;;5.57;5.07;;;;;;;-141.22;100.00;65034.22;5033493;28;20555;-44
2023/10/22 09:50:46;;;;;;;5.30;5.00;;;;;;;-141.22;100.00;65034.22;5033556;28;20901;-42
2023/10/22 09:53:17;;;;;;;6.30;5.20;;;;;;;-141.22;100.00;65034.22;5026046;28;20562;-43
2023/10/22 09:55:48;;;;;;;5.30;5.00;;;;;;;-141.22;100.00;65034.22;5032461;28;20524;-42
2023/10/22 09:58:22;;;;;;;10.00;6.00;;;;;;;-141.22;100.00;65034.22;5033731;28;20452;-40
2023/10/22 10:00:50;;;;;;;6.77;6.37;;;;;;;-141.22;100.00;65034.22;5033003;28;20440;-40
2023/10/22 10:03:21;;;;;;;7.57;7.07;;;;;;;-141.22;100.00;65034.22;5032256;28;20538;-40
2023/10/22 10:05:51;;;;;;;7.93;7.37;;;;;;;-141.22;100.00;65034.22;5032060;28;20494;-41
2023/10/22 10:08:19;;;;;;;8.47;7.67;;;;;;;-141.22;100.00;65034.22;5032729;28;20464;-43
2023/10/22 10:10:48;;;;;;;7.47;6.97;;;;;;;-141.22;100.00;65034.22;5032684;28;20432;-42
2023/10/22 10:13:16;;;;;;;7.33;7.03;;;;;;;-141.22;100.00;65034.22;5031984;28;21029;-40
2023/10/22 10:15:58;;;;;;;6.30;6.00;;;;;;;-141.22;100.00;65034.22;5032387;28;20872;-43
2023/10/22 10:19:00;;;;;;;8.70;7.80;;;;;;;-141.22;100.00;65034.22;5027023;28;20551;-40
2023/10/22 10:21:40;;;;;;;6.87;6.47;;;;;;;-141.22;100.00;65034.22;5033118;28;20443;-41
2023/10/22 10:24:19;;;;;;;8.27;7.50;;;;;;;-141.22;100.00;65034.22;5031248;28;20909;-42
2023/10/22 10:26:50;;;;;;;8.53;7.80;;;;;;;-141.22;100.00;65034.22;5032273;28;20446;-41
2023/10/22 10:29:19;;;;;;;8.53;7.80;;;;;;;-141.22;100.00;65034.22;5032676;28;20926;-42
2023/10/22 10:31:51;;;;;;;8.13;7.53;;;;;;;-141.22;100.00;65034.22;5032715;28;20436;-43
2023/10/22 10:34:26;;;;;;;7.93;7.33;;;;;;;-141.22;100.00;65034.22;5031210;28;20452;-43
2023/10/22 10:36:54;;;;;;;8.87;8.00;;;;;;;-141.22;100.00;65034.22;5033506;28;20506;-44
2023/10/22 10:39:38;;;;;;;8.20;7.90;;;;;;;-141.22;100.00;65034.22;5039229;28;20478;-44
2023/10/22 10:42:06;;;;;;;8.63;8.13;;;;;;;-141.22;100.00;65034.22;5032170;28;20436;-40
2023/10/22 10:45:04;;;;;;;8.70;7.90;;;;;;;-141.22;100.00;65034.22;5030242;28;20440;-40
2023/10/22 10:47:36;;;;;;;8.23;7.73;;;;;;;-141.22;100.00;65034.22;5027051;28;20452;-42
2023/10/22 10:50:06;;;;;;;8.27;7.80;;;;;;;-141.22;100.00;65034.22;5032204;28;20447;-41
2023/10/22 10:53:02;;;;;;;8.17;7.70;;;;;;;-141.22;100.00;65034.22;5032225;28;20495;-40
2023/10/22 10:55:33;;;;;;;8.00;7.70;;;;;;;-141.22;100.00;65034.22;5030025;28;20855;-41
2023/10/22 10:58:02;;;;;;;8.50;8.10;;;;;;;-141.22;100.00;65034.22;5031971;28;21232;-42
2023/10/22 11:00:31;;;;;;;8.07;7.57;;;;;;;-141.22;100.00;65034.22;5032155;28;20436;-43
2023/10/22 11:03:02;;;;;;;7.83;7.53;;;;;;;-141.22;100.00;65034.22;5031199;28;20475;-44
2023/10/22 11:05:35;;;;;;;9.17;8.47;;;;;;;-141.22;100.00;65034.22;5030525;28;20437;-43
2023/10/22 11:08:05;;;;;;;8.73;8.03;;;;;;;-141.22;100.00;65034.22;5032078;28;20507;-43
2023/10/22 11:10:33;;;;;;;8.03;7.53;;;;;;;-141.22;100.00;65034.22;5031988;28;20440;-41
2023/10/22 11:13:05;;;;;;;8.23;7.93;;;;;;;-141.22;100.00;65034.22;5031120;28;20673;-42